Portada
METAR-TAF:

METAR-TAF

Aeroports :

Central Park

Nova York, Nova York, Estats Units d'Amèrica

latitud: 40-47-00N, longitud: 073-58-00W, altitud: 47 m

Observació

L'informe es va fer fa 43 minuts, a les 23:51 UTC
Vent 7 kt del Oest/Nord-Oest, variant entre Oest i Nord/Nord-Oest
Temperatura 9°C
Humitat 87%
Pressió 1006 hPa
Visibilitat: 16.1 km
Escasses núvols a una alçada de 1400 ft
Núvols disperses a una alçada de 5000 ft
Cel cobert a una alçada de 7500 ft
pluja

METAR: KNYC 152351Z AUTO 30007KT 270V330 10SM -RA FEW014 SCT050 OVC075 09/07 A2971 RMK AO2 SLP051 P0004 60050 T00890067 10122 20089 51018 $

Hora: 20:34 (00:34 UTC)


TAF: manca

Observacions i pronòstics meteorològics de més de 4000 aeroports (METAR i TAF).

Les estacions disponibles són els punts grocs i vermells al mapa.

Posi el ratolí al punt desitjat per veure el nom de l'estació.

Feu clic per veure les observacions i els pronòstics meteorològics.

Per canviar el mapa: feu clic els botons verds amb una creu de color negre per apropar; al botó verd amb un guió per allunyar la imatge; o en les fletxes verdes per a mapes adjacents.


METAR-TAF: